Time;durP1;ratioP1;P1;durP2;ratioP2;P2;SDS_P1;SDS_P2;PMS_P1;PMS_P2;Temp;Humidity;BMP_temperature;BMP_pressure;BME280_temperature;BME280_humidity;BME280_pressure;Samples;Min_cycle;Max_cycle;Signal;HPM_P1;HPM_P2
2022/07/29 00:01:18;;;;;;;13.20;10.93;;;20.90;37.10;;;;;;5022582;28;20660;-58
2022/07/29 00:03:44;;;;;;;12.50;10.63;;;20.90;37.00;;;;;;5021076;28;20487;-59
2022/07/29 00:06:11;;;;;;;14.60;11.70;;;20.90;37.00;;;;;;5022370;28;20460;-59
2022/07/29 00:08:38;;;;;;;13.80;10.90;;;20.90;37.10;;;;;;5021956;28;20447;-59
2022/07/29 00:11:05;;;;;;;11.27;10.03;;;21.00;37.30;;;;;;5021780;28;20474;-59
2022/07/29 00:13:32;;;;;;;12.93;10.83;;;21.00;37.80;;;;;;5020733;28;20482;-59
2022/07/29 00:15:59;;;;;;;15.17;10.73;;;21.00;37.20;;;;;;5021306;28;20465;-58
2022/07/29 00:18:27;;;;;;;13.53;10.97;;;21.00;37.50;;;;;;5018997;28;20483;-59
2022/07/29 00:20:54;;;;;;;16.10;11.20;;;21.00;37.30;;;;;;5021652;28;20985;-59
2022/07/29 00:23:21;;;;;;;14.57;11.40;;;20.90;37.30;;;;;;5023163;28;21128;-59
2022/07/29 00:25:47;;;;;;;12.30;11.07;;;20.90;37.40;;;;;;5016384;28;21131;-59
2022/07/29 00:28:14;;;;;;;11.60;9.97;;;20.80;37.20;;;;;;5020554;28;20807;-60
2022/07/29 00:30:42;;;;;;;12.10;10.13;;;20.80;37.60;;;;;;5021351;28;20853;-59
2022/07/29 00:33:09;;;;;;;13.33;10.63;;;20.80;37.60;;;;;;5022604;28;20586;-59
2022/07/29 00:35:45;;;;;;;12.57;10.50;;;20.80;37.90;;;;;;5024408;28;20463;-59
2022/07/29 00:38:14;;;;;;;15.20;11.50;;;20.70;38.00;;;;;;5020072;28;20480;-59
2022/07/29 00:40:41;;;;;;;16.10;12.50;;;20.70;37.90;;;;;;5022089;28;20462;-59
2022/07/29 00:43:08;;;;;;;14.07;12.60;;;20.70;38.10;;;;;;5016076;28;20478;-60
2022/07/29 00:45:34;;;;;;;14.80;13.07;;;20.70;37.90;;;;;;5020046;28;20909;-60
2022/07/29 00:48:02;;;;;;;14.17;11.30;;;20.70;38.20;;;;;;5017856;28;20983;-59
2022/07/29 00:50:29;;;;;;;12.40;10.13;;;20.60;37.90;;;;;;5023353;28;20470;-59
2022/07/29 00:52:57;;;;;;;12.30;10.60;;;20.70;38.20;;;;;;5020934;28;20482;-59
2022/07/29 00:55:24;;;;;;;12.60;10.80;;;20.60;38.00;;;;;;5024026;28;20466;-59
2022/07/29 00:57:51;;;;;;;14.23;11.10;;;20.60;37.90;;;;;;5019383;28;20959;-59
2022/07/29 01:00:20;;;;;;;13.20;11.90;;;20.60;37.90;;;;;;5017488;28;20464;-59
2022/07/29 01:02:48;;;;;;;14.80;12.70;;;20.50;37.90;;;;;;5021074;28;20484;-58
2022/07/29 01:05:17;;;;;;;14.97;12.23;;;20.40;38.20;;;;;;5022324;28;20694;-59
2022/07/29 01:07:44;;;;;;;16.17;12.87;;;20.40;38.30;;;;;;5021782;28;20463;-59
2022/07/29 01:10:15;;;;;;;22.10;13.40;;;20.40;38.80;;;;;;5017263;28;20471;-58
2022/07/29 01:12:44;;;;;;;13.30;11.90;;;20.30;38.70;;;;;;5022149;28;20497;-59
2022/07/29 01:15:11;;;;;;;15.43;13.60;;;20.30;39.00;;;;;;5016958;28;20475;-59
2022/07/29 01:17:42;;;;;;;15.97;14.30;;;20.30;39.70;;;;;;5022321;28;20463;-58
2022/07/29 01:20:18;;;;;;;16.57;14.77;;;20.20;39.70;;;;;;5020974;28;20452;-60
2022/07/29 01:23:12;;;;;;;17.63;15.60;;;20.20;39.70;;;;;;5019907;28;20513;-59
2022/07/29 01:25:54;;;;;;;18.20;14.67;;;20.20;40.00;;;;;;5018695;28;20462;-58
2022/07/29 01:28:47;;;;;;;18.97;14.80;;;20.10;39.90;;;;;;5024336;28;20459;-60
2022/07/29 01:31:18;;;;;;;16.40;14.80;;;20.10;40.40;;;;;;5014620;28;20475;-59
2022/07/29 01:33:50;;;;;;;16.03;14.30;;;20.10;39.90;;;;;;5018916;28;20491;-58
2022/07/29 01:36:23;;;;;;;21.70;15.03;;;20.10;40.20;;;;;;5019457;28;21037;-58
2022/07/29 01:38:58;;;;;;;17.10;15.27;;;20.10;40.70;;;;;;5023293;28;20479;-59
2022/07/29 01:41:27;;;;;;;18.70;16.77;;;20.10;40.20;;;;;;5023765;28;20461;-58
2022/07/29 01:43:59;;;;;;;17.73;15.83;;;20.10;40.00;;;;;;5017563;28;20456;-58
2022/07/29 01:46:32;;;;;;;19.13;16.90;;;20.10;40.00;;;;;;5017646;28;20459;-59
2022/07/29 01:49:06;;;;;;;18.80;16.13;;;20.10;40.00;;;;;;5017424;28;20470;-59
2022/07/29 01:51:40;;;;;;;17.60;15.70;;;20.20;40.30;;;;;;5020899;28;20466;-59
2022/07/29 01:54:13;;;;;;;15.93;14.17;;;20.20;40.30;;;;;;5021168;28;20468;-58
2022/07/29 01:56:40;;;;;;;16.50;14.90;;;20.20;39.90;;;;;;5022524;28;20474;-59
2022/07/29 01:59:10;;;;;;;17.37;14.53;;;20.20;40.30;;;;;;5019908;28;20475;-58
2022/07/29 02:01:39;;;;;;;15.97;14.20;;;20.20;40.10;;;;;;5015446;28;20494;-59
2022/07/29 02:04:10;;;;;;;15.47;13.87;;;20.30;39.90;;;;;;5018596;28;20482;-58
2022/07/29 02:06:41;;;;;;;16.50;14.80;;;20.30;39.80;;;;;;5018683;28;20458;-58
2022/07/29 02:09:11;;;;;;;15.73;14.20;;;20.30;40.20;;;;;;5019688;28;20464;-59
2022/07/29 02:11:39;;;;;;;16.07;14.37;;;20.20;40.80;;;;;;5022898;28;20466;-58
2022/07/29 02:14:08;;;;;;;16.23;14.50;;;20.20;40.00;;;;;;5018655;28;20460;-58
2022/07/29 02:16:37;;;;;;;16.30;14.60;;;20.20;40.00;;;;;;5018550;28;20459;-59
2022/07/29 02:19:05;;;;;;;17.17;15.37;;;20.20;40.00;;;;;;5022041;28;20486;-59
2022/07/29 02:21:34;;;;;;;17.30;15.53;;;20.20;40.10;;;;;;5014267;28;20964;-59
2022/07/29 02:24:02;;;;;;;17.23;14.73;;;20.20;39.90;;;;;;5018901;28;20458;-57
2022/07/29 02:26:31;;;;;;;16.43;14.80;;;20.20;39.60;;;;;;5017345;28;20486;-59
2022/07/29 02:28:59;;;;;;;16.23;14.50;;;20.10;39.60;;;;;;5016534;28;20459;-59
2022/07/29 02:31:32;;;;;;;15.67;13.60;;;20.10;39.80;;;;;;5017123;28;20479;-57
2022/07/29 02:34:01;;;;;;;17.83;14.80;;;20.00;39.70;;;;;;5018837;28;20470;-60
2022/07/29 02:36:29;;;;;;;16.40;13.50;;;20.00;39.90;;;;;;5018176;28;20463;-59
2022/07/29 02:39:00;;;;;;;15.40;13.87;;;20.00;39.90;;;;;;5020170;28;20497;-59
2022/07/29 02:41:29;;;;;;;16.17;14.57;;;19.90;40.00;;;;;;5015514;28;21015;-58
2022/07/29 02:43:59;;;;;;;16.03;14.30;;;20.00;40.00;;;;;;5017380;28;20463;-59
2022/07/29 02:46:33;;;;;;;17.00;14.30;;;19.90;40.50;;;;;;5015825;28;20467;-60
2022/07/29 02:49:08;;;;;;;14.83;13.20;;;19.80;40.30;;;;;;5015960;28;20451;-59
2022/07/29 02:51:42;;;;;;;15.87;14.20;;;19.80;40.30;;;;;;5019739;28;20557;-58
2022/07/29 02:54:11;;;;;;;15.60;13.80;;;19.80;40.30;;;;;;5019521;28;20467;-59
2022/07/29 02:56:41;;;;;;;13.93;12.50;;;19.70;40.40;;;;;;5017012;28;20458;-60
2022/07/29 02:59:11;;;;;;;15.60;12.97;;;19.70;40.30;;;;;;5017321;28;20478;-60
2022/07/29 03:01:43;;;;;;;14.93;11.90;;;19.70;40.00;;;;;;5020885;28;20481;-59
2022/07/29 03:04:12;;;;;;;14.57;12.03;;;19.70;39.90;;;;;;5015210;28;20479;-59
2022/07/29 03:06:40;;;;;;;17.87;12.10;;;19.60;39.90;;;;;;5021750;28;20470;-59
2022/07/29 03:09:07;;;;;;;15.00;10.83;;;19.60;39.80;;;;;;5018574;28;20471;-58
2022/07/29 03:11:36;;;;;;;14.17;11.30;;;19.60;39.70;;;;;;5020155;28;20455;-58
2022/07/29 03:14:05;;;;;;;13.57;11.00;;;19.60;39.70;;;;;;5020678;28;20459;-59
2022/07/29 03:16:32;;;;;;;14.60;9.73;;;19.60;40.00;;;;;;5024262;28;20474;-59
2022/07/29 03:19:02;;;;;;;11.17;9.97;;;19.50;40.00;;;;;;5024109;28;21012;-60
2022/07/29 03:21:29;;;;;;;11.07;9.97;;;19.50;40.10;;;;;;5023945;28;20471;-59
2022/07/29 03:23:55;;;;;;;15.47;9.80;;;19.50;40.30;;;;;;5019248;28;20469;-59
2022/07/29 03:26:22;;;;;;;12.63;10.57;;;19.50;39.70;;;;;;5022536;28;20470;-59
2022/07/29 03:28:49;;;;;;;12.87;9.80;;;19.50;39.70;;;;;;5020880;28;20467;-59
2022/07/29 03:31:16;;;;;;;13.13;10.10;;;19.40;39.80;;;;;;5022917;28;20471;-59
2022/07/29 03:33:42;;;;;;;11.80;9.57;;;19.40;39.70;;;;;;5020960;28;20495;-59
2022/07/29 03:36:10;;;;;;;12.27;9.90;;;19.30;39.70;;;;;;5021364;28;20462;-59
2022/07/29 03:38:38;;;;;;;10.77;8.90;;;19.30;39.90;;;;;;5021198;28;20986;-60
2022/07/29 03:41:09;;;;;;;14.50;9.93;;;19.30;40.10;;;;;;5019835;28;20463;-58
2022/07/29 03:43:39;;;;;;;14.40;9.80;;;19.30;40.20;;;;;;5023195;28;20490;-58
2022/07/29 03:46:08;;;;;;;16.03;9.90;;;19.20;40.10;;;;;;5019374;28;20482;-57
2022/07/29 03:48:37;;;;;;;12.80;9.83;;;19.20;39.90;;;;;;5026617;28;20462;-57
2022/07/29 03:51:04;;;;;;;12.77;8.50;;;19.20;39.70;;;;;;5023759;28;20462;-58
2022/07/29 03:53:35;;;;;;;13.60;8.60;;;19.20;40.00;;;;;;5022386;28;20745;-59
2022/07/29 03:56:03;;;;;;;15.17;8.73;;;19.20;40.20;;;;;;5019797;28;20475;-59
2022/07/29 03:58:32;;;;;;;15.83;9.00;;;19.20;40.10;;;;;;5022133;28;20463;-60
2022/07/29 04:01:00;;;;;;;14.20;10.40;;;19.20;40.30;;;;;;5020408;28;20482;-59
2022/07/29 04:03:26;;;;;;;13.03;9.90;;;19.20;40.60;;;;;;5021990;28;20617;-59
2022/07/29 04:06:01;;;;;;;13.60;10.13;;;19.20;40.60;;;;;;5021668;28;21013;-59
2022/07/29 04:08:28;;;;;;;12.27;10.00;;;19.20;40.60;;;;;;5021241;28;20981;-58
2022/07/29 04:10:56;;;;;;;12.47;9.73;;;19.20;40.70;;;;;;5021096;28;20487;-63
2022/07/29 04:13:23;;;;;;;12.87;10.27;;;19.10;40.80;;;;;;5021075;28;20498;-58
2022/07/29 04:15:50;;;;;;;15.67;10.23;;;19.20;40.50;;;;;;5018603;28;20463;-58
2022/07/29 04:18:16;;;;;;;18.53;12.00;;;19.20;40.60;;;;;;5017719;28;20474;-59
2022/07/29 04:20:43;;;;;;;15.90;10.57;;;19.20;40.70;;;;;;5019032;28;21010;-59
2022/07/29 04:23:10;;;;;;;12.00;10.30;;;19.20;40.30;;;;;;5020214;28;20514;-59
2022/07/29 04:25:39;;;;;;;13.20;10.00;;;19.20;40.30;;;;;;5021616;28;20467;-59
2022/07/29 04:28:08;;;;;;;20.00;10.83;;;19.30;40.00;;;;;;5017777;28;20474;-58
2022/07/29 04:30:36;;;;;;;14.50;9.27;;;19.30;40.30;;;;;;5019995;28;20470;-58
2022/07/29 04:33:04;;;;;;;13.40;9.40;;;19.30;40.10;;;;;;5021546;28;20955;-59
2022/07/29 04:35:34;;;;;;;14.83;9.23;;;19.40;40.20;;;;;;5020956;28;20466;-60
2022/07/29 04:38:01;;;;;;;10.33;9.23;;;19.50;40.20;;;;;;5015272;28;20474;-59
2022/07/29 04:40:28;;;;;;;12.27;9.33;;;19.50;39.70;;;;;;5021545;28;20482;-59
2022/07/29 04:42:55;;;;;;;9.50;8.00;;;19.60;39.20;;;;;;5015396;28;20566;-59
2022/07/29 04:45:23;;;;;;;12.10;8.70;;;19.70;39.20;;;;;;5020934;28;20470;-59
2022/07/29 04:47:50;;;;;;;14.10;9.20;;;19.80;38.90;;;;;;5019464;28;20470;-58
2022/07/29 04:50:17;;;;;;;12.30;10.20;;;19.90;38.80;;;;;;5021415;28;20472;-59
2022/07/29 04:52:44;;;;;;;12.10;9.67;;;20.00;38.70;;;;;;5020529;28;20490;-60
2022/07/29 04:55:10;;;;;;;19.47;9.70;;;20.10;38.50;;;;;;5018155;28;20459;-59
2022/07/29 04:57:37;;;;;;;11.90;10.10;;;20.30;38.10;;;;;;5021891;28;20470;-58
2022/07/29 05:00:06;;;;;;;9.70;7.70;;;20.50;37.60;;;;;;5018253;28;20479;-58
2022/07/29 05:02:34;;;;;;;15.80;8.73;;;20.70;37.10;;;;;;5020940;28;20483;-59
2022/07/29 05:05:01;;;;;;;9.50;8.23;;;21.00;36.50;;;;;;5026662;28;20470;-61
2022/07/29 05:07:27;;;;;;;17.27;7.73;;;22.00;34.10;;;;;;5021521;28;20468;-61
2022/07/29 05:09:56;;;;;;;9.33;7.20;;;22.90;30.70;;;;;;5017502;28;20472;-61
2022/07/29 05:12:23;;;;;;;9.50;7.40;;;23.30;29.00;;;;;;5019011;28;20490;-61
2022/07/29 05:14:50;;;;;;;10.60;7.30;;;23.60;27.70;;;;;;5019548;28;20462;-62
2022/07/29 05:17:16;;;;;;;11.23;6.27;;;24.30;26.70;;;;;;5019168;28;20475;-62
2022/07/29 05:19:44;;;;;;;8.60;6.10;;;25.60;22.80;;;;;;5019139;28;20482;-62
2022/07/29 05:22:11;;;;;;;10.23;6.07;;;26.30;20.00;;;;;;5018876;28;20502;-63
2022/07/29 05:24:38;;;;;;;7.57;5.73;;;26.70;18.90;;;;;;5019653;28;20463;-61
2022/07/29 05:27:05;;;;;;;7.57;5.53;;;27.00;18.30;;;;;;5016214;28;20462;-60
2022/07/29 05:29:32;;;;;;;8.10;5.23;;;27.40;16.80;;;;;;5012930;28;20467;-62
2022/07/29 05:31:58;;;;;;;8.73;4.00;;;27.50;16.00;;;;;;5014171;28;20482;-61
2022/07/29 05:34:25;;;;;;;10.13;4.23;;;27.30;15.40;;;;;;5017372;28;20469;-62
2022/07/29 05:36:54;;;;;;;8.57;4.10;;;26.70;15.40;;;;;;5015991;28;20512;-61
2022/07/29 05:39:20;;;;;;;7.43;3.20;;;26.20;16.10;;;;;;5018606;28;21018;-61
2022/07/29 05:41:47;;;;;;;5.67;3.10;;;26.00;16.70;;;;;;5021608;28;20478;-62
2022/07/29 05:44:14;;;;;;;6.07;3.00;;;25.90;16.40;;;;;;5022704;28;20458;-62
2022/07/29 05:46:41;;;;;;;7.17;2.70;;;26.60;16.40;;;;;;5020922;28;20462;-62
2022/07/29 05:49:08;;;;;;;5.63;2.97;;;27.90;14.00;;;;;;5017644;28;20459;-62
2022/07/29 05:51:35;;;;;;;5.80;2.43;;;29.00;11.70;;;;;;5017047;28;20454;-62
2022/07/29 05:54:03;;;;;;;4.93;2.70;;;29.10;10.90;;;;;;5020861;28;20482;-61
2022/07/29 05:56:30;;;;;;;5.07;2.43;;;28.90;11.20;;;;;;5019194;28;20462;-62
2022/07/29 05:58:57;;;;;;;5.60;2.70;;;28.70;10.90;;;;;;5020396;28;20467;-62
2022/07/29 06:01:23;;;;;;;5.70;2.97;;;28.30;11.50;;;;;;5020461;28;20480;-62
2022/07/29 06:03:50;;;;;;;10.70;2.30;;;28.10;11.90;;;;;;5022144;28;20836;-63
2022/07/29 06:06:17;;;;;;;6.33;2.67;;;27.80;12.40;;;;;;5022571;28;20468;-61
2022/07/29 06:08:44;;;;;;;6.07;2.40;;;27.50;13.30;;;;;;5021667;28;20844;-62
2022/07/29 06:11:12;;;;;;;6.97;2.87;;;27.20;14.30;;;;;;5019854;28;20455;-62
2022/07/29 06:13:39;;;;;;;5.47;3.07;;;27.00;14.40;;;;;;5019023;28;20487;-62
2022/07/29 06:16:06;;;;;;;7.00;3.17;;;26.70;14.30;;;;;;5019174;28;21032;-61
2022/07/29 06:18:32;;;;;;;6.10;2.20;;;26.40;14.50;;;;;;5021265;28;20840;-62
2022/07/29 06:20:59;;;;;;;5.30;2.40;;;26.10;15.10;;;;;;5013621;28;20483;-62
2022/07/29 06:23:26;;;;;;;7.00;3.27;;;25.90;15.40;;;;;;5015737;28;20488;-59
2022/07/29 06:25:53;;;;;;;4.43;2.10;;;25.70;16.20;;;;;;5016835;28;20468;-62
2022/07/29 06:28:21;;;;;;;5.50;2.53;;;25.50;17.40;;;;;;5020892;28;20473;-63
2022/07/29 06:30:48;;;;;;;5.47;2.37;;;25.50;17.60;;;;;;5015694;28;20489;-64
2022/07/29 06:33:18;;;;;;;5.30;2.80;;;25.60;17.50;;;;;;5024878;28;20482;-63
2022/07/29 06:35:46;;;;;;;6.23;3.00;;;25.50;17.70;;;;;;5016888;28;20558;-64
2022/07/29 06:38:14;;;;;;;6.77;2.90;;;25.60;17.80;;;;;;5020198;28;20550;-61
2022/07/29 06:41:00;;;;;;;4.90;2.80;;;25.70;17.40;;;;;;5022057;28;20482;-58
2022/07/29 06:43:31;;;;;;;5.33;2.80;;;26.00;17.00;;;;;;5021126;28;21166;-58
2022/07/29 06:45:59;;;;;;;5.90;2.67;;;26.30;16.60;;;;;;5017030;28;21085;-59
2022/07/29 06:48:26;;;;;;;9.33;2.50;;;26.50;15.80;;;;;;5019969;28;20542;-58
2022/07/29 06:50:53;;;;;;;9.87;3.80;;;26.60;15.50;;;;;;5019775;28;20474;-59
2022/07/29 06:53:20;;;;;;;4.53;2.20;;;26.60;15.30;;;;;;5020690;28;20483;-59
2022/07/29 06:55:46;;;;;;;5.30;2.70;;;26.40;15.60;;;;;;5017915;28;20463;-58
2022/07/29 06:58:15;;;;;;;5.80;3.00;;;26.20;15.90;;;;;;5023279;28;22288;-59
2022/07/29 07:00:44;;;;;;;6.30;2.63;;;25.90;16.10;;;;;;5023692;28;20511;-58
2022/07/29 07:03:10;;;;;;;7.53;2.57;;;25.70;16.50;;;;;;5024182;28;20889;-58
2022/07/29 07:05:37;;;;;;;6.60;2.90;;;25.30;17.70;;;;;;5023102;28;20993;-60
2022/07/29 07:08:05;;;;;;;5.73;2.80;;;25.00;18.40;;;;;;5017714;28;20500;-61
2022/07/29 07:10:31;;;;;;;9.33;2.73;;;24.80;18.80;;;;;;5016358;28;20491;-59
2022/07/29 07:12:58;;;;;;;9.13;3.90;;;24.50;19.20;;;;;;5022493;28;20487;-60
2022/07/29 07:15:25;;;;;;;6.37;3.00;;;24.20;20.40;;;;;;5019231;28;20459;-58
2022/07/29 07:17:53;;;;;;;5.47;2.70;;;24.10;20.90;;;;;;5021606;28;22947;-58
2022/07/29 07:20:20;;;;;;;5.73;3.10;;;24.00;21.00;;;;;;5024295;28;20475;-59
2022/07/29 07:22:47;;;;;;;6.67;3.30;;;23.80;22.20;;;;;;5021544;28;20526;-58
2022/07/29 07:25:13;;;;;;;6.53;3.20;;;23.70;22.40;;;;;;5021110;28;20463;-59
2022/07/29 07:27:40;;;;;;;5.40;3.00;;;23.60;22.90;;;;;;5018609;28;20463;-59
2022/07/29 07:30:08;;;;;;;5.90;3.30;;;23.60;23.30;;;;;;5023053;28;20459;-58
2022/07/29 07:32:36;;;;;;;7.17;3.10;;;23.60;23.50;;;;;;5025401;28;20488;-57
2022/07/29 07:35:05;;;;;;;6.80;3.03;;;23.60;23.70;;;;;;5018329;28;20868;-59
2022/07/29 07:37:33;;;;;;;7.33;3.20;;;23.60;23.70;;;;;;5014324;28;20469;-59
2022/07/29 07:39:59;;;;;;;5.80;2.77;;;23.70;23.60;;;;;;5020423;28;20485;-59
2022/07/29 07:42:26;;;;;;;7.73;2.93;;;23.80;24.20;;;;;;5019920;28;20482;-57
2022/07/29 07:44:53;;;;;;;6.57;2.60;;;23.80;23.40;;;;;;5017996;28;20478;-58
2022/07/29 07:47:20;;;;;;;6.23;3.17;;;23.90;23.30;;;;;;5023197;28;20466;-60
2022/07/29 07:49:47;;;;;;;7.77;4.13;;;23.90;23.40;;;;;;5019347;28;20518;-56
2022/07/29 07:52:16;;;;;;;6.20;2.70;;;23.90;23.40;;;;;;5016601;28;20552;-56
2022/07/29 07:54:43;;;;;;;7.40;2.67;;;24.00;23.40;;;;;;5022344;28;20459;-57
2022/07/29 07:57:10;;;;;;;8.60;3.00;;;23.90;23.50;;;;;;5017319;28;20472;-58
2022/07/29 07:59:37;;;;;;;5.70;2.77;;;24.00;23.70;;;;;;5020153;28;20466;-58
2022/07/29 08:02:04;;;;;;;6.33;3.03;;;24.10;22.80;;;;;;5014514;28;20484;-59
2022/07/29 08:04:31;;;;;;;6.53;3.00;;;24.40;21.90;;;;;;5019475;28;20467;-58
2022/07/29 08:06:58;;;;;;;8.23;2.50;;;24.80;21.70;;;;;;5015391;28;20470;-58
2022/07/29 08:09:28;;;;;;;6.20;3.30;;;25.20;21.00;;;;;;5022538;28;20471;-58
2022/07/29 08:11:55;;;;;;;5.97;3.20;;;25.60;19.20;;;;;;5018296;28;20483;-57
2022/07/29 08:14:22;;;;;;;5.30;2.97;;;26.10;19.20;;;;;;5026653;28;20459;-58
2022/07/29 08:16:49;;;;;;;5.20;2.73;;;27.70;16.60;;;;;;5026527;28;20463;-58
2022/07/29 08:19:15;;;;;;;5.23;2.87;;;28.50;14.40;;;;;;5023177;28;20962;-57
2022/07/29 08:21:42;;;;;;;4.73;2.53;;;29.00;13.80;;;;;;5025245;28;20558;-60
2022/07/29 08:27:06;;;;;;;5.40;2.80;;;31.60;9.80;;;;;;4973773;28;20454;-58
2022/07/29 08:29:33;;;;;;;6.03;2.40;;;33.70;6.60;;;;;;5012888;28;20464;-58
2022/07/29 08:32:00;;;;;;;7.43;3.07;;;35.80;3.40;;;;;;5022055;28;20483;-60
2022/07/29 08:34:28;;;;;;;6.23;2.60;;;36.40;2.30;;;;;;5018910;28;20483;-59
2022/07/29 08:36:54;;;;;;;5.33;3.17;;;35.70;1.90;;;;;;5022117;28;20456;-58
2022/07/29 08:39:22;;;;;;;5.17;2.37;;;35.00;2.90;;;;;;5022287;28;20878;-59
2022/07/29 08:41:48;;;;;;;4.63;2.43;;;34.90;2.70;;;;;;5017664;28;20487;-62
2022/07/29 08:44:18;;;;;;;6.00;2.80;;;35.50;2.70;;;;;;5022587;28;20463;-58
2022/07/29 08:46:45;;;;;;;6.23;2.83;;;37.30;1.00;;;;;;5019738;28;20469;-59
2022/07/29 08:49:12;;;;;;;5.40;2.20;;;39.60;1.00;;;;;;5019671;28;20470;-59
2022/07/29 08:51:41;;;;;;;6.10;2.70;;;39.40;1.00;;;;;;5023793;28;20834;-59
2022/07/29 08:54:09;;;;;;;7.03;2.30;;;39.10;1.00;;;;;;5019552;28;20487;-57
2022/07/29 08:56:36;;;;;;;7.73;2.60;;;40.40;1.00;;;;;;5014826;28;20473;-59
2022/07/29 08:59:04;;;;;;;4.80;3.00;;;41.50;1.00;;;;;;5015859;28;20460;-59
2022/07/29 09:01:34;;;;;;;5.80;2.40;;;43.50;1.00;;;;;;5021944;28;20483;-59
2022/07/29 09:04:03;;;;;;;4.67;2.60;;;44.80;1.00;;;;;;5016406;28;20463;-58
2022/07/29 09:06:35;;;;;;;4.17;2.27;;;45.50;1.00;;;;;;5019852;28;20488;-61
2022/07/29 09:09:02;;;;;;;4.27;2.67;;;46.10;1.00;;;;;;5022223;28;20463;-55
2022/07/29 09:11:29;;;;;;;3.53;2.17;;;46.20;1.00;;;;;;5020229;28;20532;-59
2022/07/29 09:13:55;;;;;;;4.97;2.53;;;46.90;1.00;;;;;;5016669;28;20509;-58
2022/07/29 09:16:22;;;;;;;5.23;2.90;;;47.70;1.00;;;;;;5013670;28;20467;-60
2022/07/29 09:18:50;;;;;;;4.13;2.37;;;48.40;1.00;;;;;;5023431;28;20494;-59
2022/07/29 09:24:08;;;;;;;4.53;2.77;;;48.70;1.00;;;;;;5019723;28;20446;-58
2022/07/29 09:26:37;;;;;;;5.30;2.57;;;47.00;1.00;;;;;;5017156;28;20464;-58
2022/07/29 09:29:10;;;;;;;4.50;2.50;;;46.30;1.00;;;;;;5019119;28;20545;-60
2022/07/29 09:31:39;;;;;;;5.60;2.60;;;45.70;1.00;;;;;;5022228;28;20507;-61
2022/07/29 09:34:08;;;;;;;4.47;2.60;;;44.00;1.00;;;;;;5013400;28;20468;-59
2022/07/29 09:36:41;;;;;;;5.40;2.93;;;45.40;1.00;;;;;;5020619;28;20485;-60
2022/07/29 09:39:07;;;;;;;5.07;3.03;;;47.50;1.00;;;;;;5019902;28;20459;-58
2022/07/29 09:41:46;;;;;;;6.00;2.07;;;49.10;1.00;;;;;;5020013;28;21057;-58
2022/07/29 09:44:14;;;;;;;5.63;2.30;;;50.10;1.00;;;;;;5015768;28;20462;-58
2022/07/29 09:46:42;;;;;;;5.47;3.07;;;50.10;1.00;;;;;;5016655;28;20467;-60
2022/07/29 09:49:12;;;;;;;4.37;2.60;;;47.70;1.00;;;;;;5018209;28;20463;-59
2022/07/29 09:51:40;;;;;;;5.63;2.70;;;45.30;1.00;;;;;;5022912;28;20462;-58
2022/07/29 09:54:22;;;;;;;5.40;2.80;;;43.70;1.00;;;;;;5014648;28;20517;-59
2022/07/29 09:56:48;;;;;;;4.77;2.90;;;42.60;1.00;;;;;;5021389;28;20978;-60
2022/07/29 09:59:16;;;;;;;6.77;3.40;;;41.10;1.00;;;;;;5017800;28;20534;-59
2022/07/29 10:01:43;;;;;;;5.17;2.73;;;40.10;1.00;;;;;;5018426;28;20949;-59
2022/07/29 10:04:12;;;;;;;6.50;3.40;;;39.30;1.00;;;;;;5013320;28;20493;-59
2022/07/29 10:06:57;;;;;;;5.60;2.83;;;39.10;1.00;;;;;;5015189;28;20570;-58
2022/07/29 10:09:24;;;;;;;7.60;3.37;;;38.90;1.00;;;;;;5018680;28;20557;-58
2022/07/29 10:12:05;;;;;;;4.83;3.07;;;38.10;1.00;;;;;;5024516;28;20536;-59
2022/07/29 10:14:33;;;;;;;5.37;3.10;;;37.50;1.00;;;;;;5018468;28;20466;-62
2022/07/29 10:17:01;;;;;;;5.23;2.70;;;37.00;1.00;;;;;;5016611;28;20459;-58
2022/07/29 10:19:31;;;;;;;6.67;2.70;;;36.60;1.00;;;;;;5014595;28;20518;-58
2022/07/29 10:21:59;;;;;;;4.60;2.60;;;36.20;1.00;;;;;;5019000;28;20995;-59
2022/07/29 10:24:27;;;;;;;5.50;2.70;;;35.90;1.00;;;;;;5018534;28;20478;-58
2022/07/29 10:26:55;;;;;;;6.33;2.70;;;35.50;1.00;;;;;;5021759;28;20483;-59
2022/07/29 10:29:22;;;;;;;6.40;2.60;;;35.10;1.00;;;;;;5012249;28;20523;-59
2022/07/29 10:31:58;;;;;;;5.10;2.80;;;34.60;1.00;;;;;;5017088;28;20860;-57
2022/07/29 10:34:37;;;;;;;4.67;3.00;;;34.20;1.20;;;;;;5016474;28;20471;-58
2022/07/29 10:37:14;;;;;;;5.07;2.60;;;33.70;2.00;;;;;;5024195;28;20469;-60
2022/07/29 10:39:49;;;;;;;4.30;2.40;;;33.30;3.00;;;;;;5013954;28;20464;-60
2022/07/29 10:42:20;;;;;;;4.67;2.80;;;32.90;3.40;;;;;;5020607;28;20490;-60
2022/07/29 10:44:47;;;;;;;5.23;3.20;;;32.40;4.10;;;;;;5016007;28;21005;-61
2022/07/29 10:47:21;;;;;;;4.40;2.60;;;32.00;4.60;;;;;;5014440;28;20467;-60
2022/07/29 10:49:59;;;;;;;5.47;2.70;;;31.60;5.30;;;;;;5012978;28;20459;-66
2022/07/29 10:52:46;;;;;;;5.13;2.70;;;31.20;5.90;;;;;;5014631;28;20833;-59
2022/07/29 10:55:32;;;;;;;6.53;3.30;;;30.90;5.70;;;;;;5016816;28;20447;-59
2022/07/29 10:58:14;;;;;;;5.00;2.80;;;30.50;6.00;;;;;;5022323;28;20459;-58
2022/07/29 11:00:41;;;;;;;4.10;2.50;;;30.30;6.60;;;;;;5019921;28;20486;-59
2022/07/29 11:03:08;;;;;;;5.20;2.73;;;30.10;6.60;;;;;;5016663;28;20494;-60
2022/07/29 11:05:55;;;;;;;5.13;2.30;;;30.00;6.90;;;;;;5016309;28;20984;-59
2022/07/29 11:08:26;;;;;;;6.70;3.03;;;29.90;7.10;;;;;;5020254;28;20532;-60
2022/07/29 11:11:14;;;;;;;7.47;3.30;;;29.90;7.50;;;;;;5023628;28;20783;-61
2022/07/29 11:13:51;;;;;;;5.70;2.50;;;30.10;7.40;;;;;;5019671;28;20483;-61
2022/07/29 11:16:21;;;;;;;4.30;2.27;;;30.30;6.30;;;;;;5020628;28;20478;-59
2022/07/29 11:19:22;;;;;;;8.40;2.83;;;30.30;6.50;;;;;;5017154;28;20578;-58
2022/07/29 11:21:51;;;;;;;5.70;2.67;;;30.20;7.00;;;;;;5019282;28;20497;-56
2022/07/29 11:24:23;;;;;;;4.60;2.73;;;30.10;6.70;;;;;;5016770;28;20498;-58
2022/07/29 11:27:12;;;;;;;6.40;2.93;;;30.10;6.20;;;;;;5015788;28;20997;-57
2022/07/29 11:29:41;;;;;;;6.10;2.70;;;30.00;5.50;;;;;;5011899;28;20462;-58
2022/07/29 11:32:14;;;;;;;4.83;2.80;;;30.00;6.20;;;;;;5019623;28;20512;-58
2022/07/29 11:34:41;;;;;;;5.73;2.73;;;30.10;7.00;;;;;;5022550;28;20469;-57
2022/07/29 11:37:33;;;;;;;5.23;2.30;;;30.30;6.80;;;;;;5017768;28;20475;-57
2022/07/29 11:40:19;;;;;;;5.20;1.90;;;30.40;6.50;;;;;;5023985;28;20821;-58
2022/07/29 11:42:50;;;;;;;4.70;1.93;;;30.40;5.30;;;;;;5020281;28;20490;-58
2022/07/29 11:45:32;;;;;;;5.13;2.70;;;30.30;4.50;;;;;;5023103;28;20467;-59
2022/07/29 11:48:00;;;;;;;4.63;2.40;;;30.20;4.90;;;;;;5017775;28;20464;-59
2022/07/29 11:50:35;;;;;;;4.53;2.67;;;30.10;5.10;;;;;;5024765;28;20467;-59
2022/07/29 11:53:10;;;;;;;5.50;2.87;;;29.90;5.50;;;;;;5025572;28;20482;-58
2022/07/29 11:55:39;;;;;;;4.70;2.47;;;29.70;6.00;;;;;;5015888;28;20503;-59
2022/07/29 11:58:05;;;;;;;7.83;2.33;;;29.50;6.30;;;;;;5015770;28;20464;-59
2022/07/29 12:00:34;;;;;;;5.37;3.00;;;29.30;6.70;;;;;;5013318;28;21196;-58
2022/07/29 12:03:03;;;;;;;4.70;2.87;;;29.00;7.30;;;;;;5017638;28;20505;-58
2022/07/29 12:05:39;;;;;;;4.73;2.40;;;28.70;7.30;;;;;;5019630;28;20977;-58
2022/07/29 12:08:10;;;;;;;5.53;2.97;;;28.50;7.70;;;;;;5016679;28;21121;-62
2022/07/29 12:10:37;;;;;;;5.07;3.17;;;28.30;8.20;;;;;;5018747;28;20463;-61
2022/07/29 12:13:05;;;;;;;6.03;2.50;;;28.20;8.80;;;;;;5024770;28;20474;-62
2022/07/29 12:15:32;;;;;;;4.63;2.90;;;28.10;9.20;;;;;;5020172;28;20464;-67
2022/07/29 12:17:59;;;;;;;5.03;2.90;;;28.00;9.60;;;;;;5018372;28;20487;-68
2022/07/29 12:20:28;;;;;;;5.57;2.67;;;28.00;9.20;;;;;;5017677;28;20582;-67
2022/07/29 12:22:56;;;;;;;6.00;2.73;;;28.00;9.40;;;;;;5021234;28;20524;-68
2022/07/29 12:25:26;;;;;;;7.27;3.17;;;28.00;9.80;;;;;;5021593;28;21058;-67
2022/07/29 12:28:00;;;;;;;5.37;2.87;;;27.90;9.50;;;;;;5018055;28;20482;-68
2022/07/29 12:30:38;;;;;;;5.53;3.00;;;27.90;9.10;;;;;;5016329;28;21271;-69
2022/07/29 12:33:12;;;;;;;7.80;2.50;;;27.80;9.00;;;;;;5017027;28;20491;-66
2022/07/29 12:35:39;;;;;;;4.57;2.40;;;27.90;9.50;;;;;;5013695;28;20482;-67
2022/07/29 12:38:06;;;;;;;5.00;2.60;;;28.00;9.80;;;;;;5017904;28;20468;-68
2022/07/29 12:40:34;;;;;;;4.70;2.20;;;28.20;9.20;;;;;;5013954;28;20845;-67
2022/07/29 12:43:10;;;;;;;8.03;2.73;;;28.50;8.70;;;;;;5017883;28;20491;-67
2022/07/29 12:45:37;;;;;;;4.53;2.63;;;28.60;7.50;;;;;;5019061;28;20476;-67
2022/07/29 12:48:05;;;;;;;4.53;2.43;;;28.70;7.60;;;;;;5010662;28;20460;-67
2022/07/29 12:50:32;;;;;;;5.30;2.73;;;28.70;7.30;;;;;;5019853;28;20459;-67
2022/07/29 12:53:11;;;;;;;7.30;3.00;;;28.70;7.80;;;;;;5023458;28;20480;-66
2022/07/29 12:55:44;;;;;;;4.80;2.60;;;28.80;7.30;;;;;;5016835;28;20491;-68
2022/07/29 12:58:11;;;;;;;4.03;2.30;;;28.80;8.10;;;;;;5021757;28;20596;-67
2022/07/29 13:00:38;;;;;;;5.43;2.37;;;28.90;8.00;;;;;;5016214;28;20629;-67